»·PEaware :: BOE115 KBFI-KBOI

BOE115 :: KBFI-KBOI

FLIGHT INFORMATION

Flight Status: Arrived
Operator:
Boeing Commercial Airplane Group
More flights by this operator :: More flights under this callsign
Pilot: Anonymous 30051 (30051)
Aircraft: BOEING 737-200
(B732)
More flights by this aircraft type
Origin: KBFI Boeing Field/King Co Intl
United States
Destination: KBOI Boise Air Terminal/Gowen
United States
More flights between these airports :: More routes between these airports
Route: YKM J20 PDT J20 DNJ
File this flight plan on PilotEdge
Remarks:
Altitude:
(Current/Filed)
33,000ft
Speed:
(Current/Filed)
410kts
Departed: 07-Sep-20 05:36 PM
Arrived: 07-Sep-20 06:51 PM
Distance/Time
Traveled:
349nm/1:15
Distance/Time
To Go:
Arrived

Flight Plot

Page will automatically refresh every two minutes.

Flight plan parsing failed; only flown route is shown


Map Options




Map Legend


Flown Route
Filed Route
Departure Airport
Arrival Airport
Navaid (VOR, NDB)
Fix

Horizontal Profiles

Position Reports

Time Latitude Longitude Heading Altitude Ground
Speed
07-Sep-20 17:15 47.534783 -122.310876 62 17ft 0kts
07-Sep-20 17:19 47.534783 -122.310876 62 17ft 0kts
07-Sep-20 17:20 47.534783 -122.310876 62 17ft 0kts
07-Sep-20 17:21 47.534783 -122.310876 62 17ft 0kts
07-Sep-20 17:22 47.534783 -122.310876 62 17ft 0kts
07-Sep-20 17:23 47.534783 -122.310876 62 17ft 0kts
07-Sep-20 17:24 47.534783 -122.310876 62 17ft 0kts
07-Sep-20 17:25 47.534783 -122.310876 62 17ft 0kts
07-Sep-20 17:26 47.534783 -122.310876 62 17ft 0kts
07-Sep-20 17:27 47.534783 -122.310876 62 17ft 0kts
07-Sep-20 17:28 47.534784 -122.310876 62 17ft 0kts
07-Sep-20 17:29 47.534783 -122.310876 62 17ft 0kts
07-Sep-20 17:30 47.534857 -122.310590 79 18ft 8kts
07-Sep-20 17:31 47.532467 -122.306067 150 19ft 16kts
07-Sep-20 17:32 47.526370 -122.300898 150 20ft 30kts
07-Sep-20 17:33 47.518518 -122.294319 150 22ft 35kts
07-Sep-20 17:34 47.516668 -122.292673 78 23ft 0kts
07-Sep-20 17:35 47.527359 -122.300338 329 119ft 156kts
07-Sep-20 17:36 47.581245 -122.346940 330 2081ft 324kts
07-Sep-20 17:37 47.652370 -122.409063 330 5713ft 282kts
07-Sep-20 17:38 47.718967 -122.469869 330 9306ft 283kts
07-Sep-20 17:39 47.794745 -122.504560 24 11322ft 316kts
07-Sep-20 17:40 47.816475 -122.388558 111 13687ft 339kts
07-Sep-20 17:41 47.753165 -122.276251 130 15011ft 383kts
07-Sep-20 17:42 47.678733 -122.163484 131 17646ft 380kts
07-Sep-20 17:43 47.602887 -122.053944 130 20080ft 388kts
07-Sep-20 17:44 47.525048 -121.938233 128 21912ft 403kts
07-Sep-20 17:45 47.447910 -121.814871 125 23565ft 416kts
07-Sep-20 17:46 47.371411 -121.684051 123 25017ft 427kts
07-Sep-20 17:47 47.293221 -121.548981 124 26290ft 440kts
07-Sep-20 17:48 47.209879 -121.413516 126 27421ft 452kts
07-Sep-20 17:49 47.122347 -121.281751 129 28433ft 463kts
07-Sep-20 17:50 47.029979 -121.146427 128 29536ft 477kts
07-Sep-20 17:51 46.935459 -121.004850 126 30367ft 495kts
07-Sep-20 17:52 46.838863 -120.855190 124 31177ft 510kts
07-Sep-20 17:53 46.741365 -120.703820 125 32185ft 517kts
07-Sep-20 17:54 46.640128 -120.550700 126 32907ft 528kts
07-Sep-20 17:55 46.537968 -120.395711 123 33349ft 536kts
07-Sep-20 17:56 46.447528 -120.225451 122 33340ft 538kts
07-Sep-20 17:57 46.352875 -120.058056 120 33339ft 537kts
07-Sep-20 17:58 46.258886 -119.889758 120 33326ft 537kts
07-Sep-20 17:59 46.164736 -119.722783 121 33308ft 537kts
07-Sep-20 18:00 46.049275 -119.584527 149 33306ft 561kts
07-Sep-20 18:01 45.913391 -119.480934 126 33224ft 544kts
07-Sep-20 18:02 45.833514 -119.304829 105 33228ft 514kts
07-Sep-20 18:03 45.772536 -119.119717 109 33220ft 517kts
07-Sep-20 18:04 45.699083 -118.941261 109 33218ft 519kts
07-Sep-20 18:05 45.615228 -118.769623 114 33216ft 531kts
07-Sep-20 18:06 45.549691 -118.593130 80 33211ft 465kts
07-Sep-20 18:07 45.511458 -118.410271 102 33193ft 507kts
07-Sep-20 18:08 45.457242 -118.230152 97 33185ft 496kts
07-Sep-20 18:09 45.407759 -118.046099 97 33182ft 498kts
07-Sep-20 18:10 45.352866 -117.863456 101 33177ft 505kts
07-Sep-20 18:11 45.290748 -117.683986 104 33242ft 510kts
07-Sep-20 18:12 45.224144 -117.505531 106 33241ft 515kts
07-Sep-20 18:13 45.152125 -117.330501 104 32580ft 495kts
07-Sep-20 18:14 45.098187 -117.156298 98 29673ft 472kts
07-Sep-20 18:15 45.052594 -116.984184 101 26879ft 462kts
07-Sep-20 18:16 44.998410 -116.821636 109 24440ft 458kts
07-Sep-20 18:17 44.934076 -116.661256 114 24127ft 466kts
07-Sep-20 18:18 44.872174 -116.505027 110 21972ft 444kts
07-Sep-20 18:19 44.819140 -116.352798 109 19786ft 422kts
07-Sep-20 18:20 44.768212 -116.209603 111 17810ft 400kts
07-Sep-20 18:21 44.680022 -116.123658 167 15736ft 400kts
07-Sep-20 18:22 44.572476 -116.099937 176 13765ft 383kts
07-Sep-20 18:23 44.468849 -116.099393 186 12222ft 361kts
07-Sep-20 18:24 44.369458 -116.120826 194 12183ft 365kts
07-Sep-20 18:25 44.268750 -116.149401 192 12123ft 370kts
07-Sep-20 18:27 44.166280 -116.165373 184 11979ft 371kts
07-Sep-20 18:28 44.063462 -116.163825 178 11972ft 368kts
07-Sep-20 18:29 43.960711 -116.159260 181 11974ft 375kts
07-Sep-20 18:30 43.856208 -116.164833 177 11965ft 373kts
07-Sep-20 18:31 43.782844 -116.086621 123 11387ft 324kts
07-Sep-20 18:32 43.728598 -115.987977 123 10014ft 321kts
07-Sep-20 18:33 43.675442 -115.891151 123 9966ft 311kts
07-Sep-20 18:34 43.623748 -115.796525 122 9772ft 297kts
07-Sep-20 18:35 43.576771 -115.711672 122 9091ft 270kts
07-Sep-20 18:36 43.518946 -115.656851 194 8920ft 246kts
07-Sep-20 18:37 43.457144 -115.679529 201 7941ft 218kts
07-Sep-20 18:38 43.413673 -115.716917 269 7921ft 173kts
07-Sep-20 18:39 43.406685 -115.772651 271 7905ft 133kts
07-Sep-20 18:40 43.416293 -115.813771 311 8436ft 102kts
07-Sep-20 18:41 43.433756 -115.847369 314 8477ft 103kts
07-Sep-20 18:41 43.448628 -115.877960 299 8254ft 130kts
07-Sep-20 18:43 43.463041 -115.932937 307 6921ft 127kts
07-Sep-20 18:44 43.479185 -115.976216 302 6170ft 123kts
07-Sep-20 18:44 43.491785 -116.012704 302 5733ft 127kts
07-Sep-20 18:46 43.510756 -116.063450 303 5041ft 132kts
07-Sep-20 18:47 43.525228 -116.108698 306 4488ft 125kts
07-Sep-20 18:47 43.538153 -116.144195 303 3727ft 120kts
07-Sep-20 18:48 43.552213 -116.185128 302 3206ft 118kts
07-Sep-20 18:49 43.563944 -116.218536 297 2857ft 44kts
07-Sep-20 18:50 43.566444 -116.224059 358 2850ft 0kts
07-Sep-20 18:51 43.566852 -116.221058 47 2853ft 11kts
07-Sep-20 18:52 43.567240 -116.220725 23 2852ft 0kts

Navigation Log

Ident Type
Flight plan parsing failed, navigation log unavailable